createdAt,value
2016-12-18T16:07:42.855Z,19.7
2016-12-18T16:08:05.232Z,19.8
2016-12-18T16:10:06.000Z,19.8
2016-12-18T16:12:04.621Z,20
2016-12-18T16:14:12.250Z,20.1
2016-12-18T16:16:11.591Z,20.2
2016-12-18T16:18:05.668Z,20.3
2016-12-18T16:20:05.562Z,20.3
2016-12-18T16:22:13.769Z,20.4
2016-12-18T16:24:05.508Z,20.4
2016-12-18T16:26:05.530Z,20.5
2016-12-18T16:28:06.997Z,20.5
2016-12-18T16:30:07.895Z,20.6
2016-12-18T16:32:04.822Z,20.6
2016-12-18T16:34:08.118Z,20.6
2016-12-18T16:36:05.274Z,20.6
2016-12-18T16:38:05.047Z,20.6
2016-12-18T16:40:04.623Z,20.7
2016-12-18T16:42:05.259Z,20.7
2016-12-18T16:44:05.103Z,20.7
2016-12-18T16:46:10.001Z,20.7
2016-12-18T16:48:04.845Z,20.7
2016-12-18T16:50:04.862Z,20.8
2016-12-18T16:52:05.002Z,20.8
2016-12-18T16:54:04.719Z,20.8
2016-12-18T16:56:08.876Z,20.8
2016-12-18T16:58:05.445Z,20.8
2016-12-18T17:00:07.628Z,20.9
2016-12-18T17:02:05.317Z,20.8
2016-12-18T17:04:04.932Z,20.9
2016-12-18T17:06:04.842Z,20.9
2016-12-18T17:12:28.806Z,20.9
2016-12-18T17:14:04.684Z,20.9
2016-12-18T17:16:05.534Z,20.9
2016-12-18T17:18:05.557Z,20.9
2016-12-18T17:20:05.742Z,20.9
2016-12-18T17:22:05.769Z,21
2016-12-18T17:24:05.021Z,21
2016-12-18T17:26:07.219Z,20.9
2016-12-18T17:32:05.025Z,20.9
2016-12-18T17:33:04.738Z,21
2016-12-18T17:34:10.515Z,20.9
2016-12-18T17:36:05.088Z,20.9
2016-12-18T17:38:04.909Z,21
2016-12-18T17:40:11.486Z,21
2016-12-18T17:42:16.230Z,20.9
2016-12-18T17:44:05.064Z,21
2016-12-18T17:46:05.071Z,21
2016-12-18T17:48:05.453Z,21
2016-12-18T17:50:05.242Z,21
2016-12-18T17:52:05.013Z,21
2016-12-18T17:54:04.758Z,21.1
2016-12-18T17:56:05.439Z,21
2016-12-18T17:59:21.228Z,21.4
2016-12-18T18:00:07.545Z,21.5
2016-12-18T18:02:05.345Z,21.4
2016-12-18T18:04:05.668Z,21.4
2016-12-18T18:05:40.949Z,21.4
2016-12-18T18:06:05.016Z,21.4
2016-12-18T18:06:14.051Z,21.4
2016-12-18T18:07:00.035Z,21.4
2016-12-18T18:08:05.660Z,21.4
2016-12-18T18:08:06.444Z,21.4
2016-12-18T18:08:24.107Z,21.3
2016-12-18T18:09:09.335Z,21.3
2016-12-18T18:10:10.923Z,21.3
2016-12-18T18:10:28.272Z,21.3
2016-12-18T18:10:52.933Z,21.4
2016-12-18T18:12:07.186Z,21.3
2016-12-18T18:14:04.894Z,21.4
2016-12-18T18:15:37.978Z,21.3
2016-12-18T18:16:08.109Z,21.3
2016-12-18T18:18:05.131Z,21.3
2016-12-18T18:18:48.802Z,21.3
2016-12-18T18:19:18.138Z,21.3
2016-12-18T18:19:53.415Z,21.3
2016-12-18T18:20:07.450Z,21.3
2016-12-18T18:22:05.297Z,21.3
2016-12-18T18:24:05.019Z,21.3
2016-12-18T18:26:04.796Z,21.3
2016-12-18T18:28:05.020Z,21.3
2016-12-18T18:30:07.242Z,21.3
2016-12-18T18:32:05.680Z,21.3
2016-12-18T18:34:05.587Z,21.3
2016-12-18T18:36:12.866Z,21.4
2016-12-18T18:38:05.588Z,21.3
2016-12-18T18:40:05.255Z,21.4
2016-12-18T18:42:05.268Z,21.4
2016-12-18T18:44:05.086Z,21.4
2016-12-18T18:46:05.012Z,21.4
2016-12-18T18:48:07.327Z,21.4
2016-12-18T18:50:05.419Z,21.3
2016-12-18T18:52:07.644Z,21.4
2016-12-18T18:54:05.367Z,21.3
2016-12-18T18:56:05.720Z,21.4
2016-12-18T18:58:09.881Z,21.4
2016-12-18T19:00:05.535Z,21.4
2016-12-18T19:02:05.365Z,21.4
2016-12-18T19:04:05.105Z,21.4
2016-12-18T19:06:09.900Z,21.4
2016-12-18T19:08:09.912Z,21.4
2016-12-18T19:10:05.586Z,21.4
2016-12-18T19:12:05.375Z,21.4
2016-12-18T19:14:05.116Z,21.4
2016-12-18T19:16:04.869Z,21.4
2016-12-18T19:18:04.784Z,21.4
2016-12-18T19:20:05.541Z,21.4
2016-12-18T19:22:07.742Z,21.4
2016-12-18T19:24:04.981Z,21.4
2016-12-18T19:26:04.705Z,21.4
2016-12-18T19:28:05.542Z,21.4
2016-12-18T19:30:05.454Z,21.4
2016-12-18T19:32:10.227Z,21.4
2016-12-18T19:34:12.578Z,21.4
2016-12-18T19:36:05.386Z,21.4
2016-12-18T19:38:04.718Z,21.4
2016-12-18T19:40:05.504Z,21.4
2016-12-18T19:42:05.214Z,21.4
2016-12-18T19:44:04.752Z,21.4
2016-12-18T19:46:05.480Z,21.4
2016-12-18T19:48:05.178Z,21.5
2016-12-18T19:50:07.582Z,21.5
2016-12-18T19:52:05.263Z,21.4
2016-12-18T19:54:05.052Z,21.5
2016-12-18T19:56:07.408Z,21.5
2016-12-18T19:58:05.619Z,21.4
2016-12-18T20:00:05.335Z,21.4
2016-12-18T20:02:05.189Z,21.4
2016-12-18T20:04:15.999Z,21.4
2016-12-18T20:06:04.688Z,21.5
2016-12-18T20:08:05.397Z,21.5
2016-12-18T20:10:05.098Z,21.5
2016-12-18T20:12:04.803Z,21.5
2016-12-18T20:14:05.171Z,21.5
2016-12-18T20:16:07.363Z,21.4
2016-12-18T20:18:05.415Z,21.4
2016-12-18T20:20:07.803Z,21.4
2016-12-18T20:22:04.986Z,21.4
2016-12-18T20:24:04.717Z,21.4
2016-12-18T20:26:04.787Z,21.4
2016-12-18T20:28:10.084Z,21.4
2016-12-18T20:30:04.798Z,21.4
2016-12-18T20:32:13.105Z,21.4
2016-12-18T20:34:05.529Z,21.4
2016-12-18T20:36:05.235Z,21.4
2016-12-18T20:38:05.824Z,21.4
2016-12-18T20:40:05.108Z,21.4
2016-12-18T20:42:05.363Z,21.4
2016-12-18T20:44:04.905Z,21.4
2016-12-18T20:46:05.642Z,21.4
2016-12-18T20:48:04.850Z,21.4
2016-12-18T20:50:08.103Z,21.4
2016-12-18T20:52:05.348Z,21.4
2016-12-18T20:54:05.593Z,21.4
2016-12-18T20:56:10.566Z,21.4
2016-12-18T20:58:10.322Z,21.4
2016-12-18T21:00:04.976Z,21.4
2016-12-18T21:02:05.033Z,21.4
2016-12-18T21:04:04.936Z,21.4
2016-12-18T21:06:04.868Z,21.4
2016-12-18T21:08:05.556Z,21.4
2016-12-18T21:10:05.218Z,21.4
2016-12-18T21:12:05.553Z,21.4
2016-12-18T21:14:05.371Z,21.4
2016-12-18T21:16:05.065Z,21.4
2016-12-18T21:18:05.160Z,21.4
2016-12-18T21:20:05.366Z,21.3
2016-12-18T21:22:05.197Z,21.3
2016-12-18T21:24:04.630Z,21.3
2016-12-18T21:26:10.769Z,21.3
2016-12-18T21:28:05.535Z,21.3
2016-12-18T21:30:12.815Z,21.3
2016-12-18T21:32:05.496Z,21.3
2016-12-18T21:34:05.239Z,21.3
2016-12-18T21:36:07.490Z,21.3
2016-12-18T21:38:05.496Z,21.3
2016-12-18T21:40:07.753Z,21.3
2016-12-18T21:42:05.011Z,21.3
2016-12-18T21:44:05.011Z,21.3
2016-12-18T21:46:07.903Z,21.3
2016-12-18T21:48:04.643Z,21.3
2016-12-18T21:50:05.251Z,21.3
2016-12-18T21:52:04.912Z,21.3
2016-12-18T21:54:07.297Z,21.3
2016-12-18T21:56:04.997Z,21.3
2016-12-18T21:58:07.256Z,21.3
2016-12-18T22:00:04.728Z,21.3
2016-12-18T22:02:05.975Z,21.3
2016-12-18T22:04:05.761Z,21.3
2016-12-18T22:06:07.966Z,21.3
2016-12-18T22:08:05.367Z,21.3
2016-12-18T22:10:05.627Z,21.3
2016-12-18T22:12:05.350Z,21.3
2016-12-18T22:14:05.254Z,21.3
2016-12-18T22:16:04.974Z,21.3
2016-12-18T22:18:07.419Z,21.3
2016-12-18T22:20:05.119Z,21.3
2016-12-18T22:22:04.772Z,21.3
2016-12-18T22:24:05.566Z,21.3
2016-12-18T22:26:07.720Z,21.3
2016-12-18T22:28:05.458Z,21.3
2016-12-18T22:30:05.162Z,21.2
2016-12-18T22:32:05.513Z,21.2
2016-12-18T22:34:05.037Z,21.3
2016-12-18T22:36:04.659Z,21.3
2016-12-18T22:38:05.492Z,21.3
2016-12-18T22:40:05.210Z,21.2
2016-12-18T22:42:04.904Z,21.3
2016-12-18T22:44:04.891Z,21.3
2016-12-18T22:46:05.643Z,21.2
2016-12-18T22:48:05.347Z,21.3
2016-12-18T22:50:07.770Z,21.2
2016-12-18T22:52:05.498Z,21.2
2016-12-18T22:54:05.233Z,21.2
2016-12-18T22:56:12.524Z,21.2
2016-12-18T22:58:05.349Z,21.2
2016-12-18T23:00:12.639Z,21.2
2016-12-18T23:02:10.689Z,21.2
2016-12-18T23:04:05.381Z,21.2
2016-12-18T23:06:05.267Z,21.2
2016-12-18T23:08:10.650Z,21.2
2016-12-18T23:10:05.339Z,21.2
2016-12-18T23:12:05.074Z,21.3
2016-12-18T23:14:05.166Z,21.2
2016-12-18T23:16:04.855Z,21.2
2016-12-18T23:18:04.724Z,21.2
2016-12-18T23:20:08.077Z,21.2
2016-12-18T23:22:04.807Z,21.2
2016-12-18T23:24:04.751Z,21.2
2016-12-18T23:26:04.696Z,21.2
2016-12-18T23:28:05.004Z,21.2
2016-12-18T23:30:05.753Z,21.2
2016-12-18T23:32:05.603Z,21.2
2016-12-18T23:34:08.095Z,21.2
2016-12-18T23:36:04.811Z,21.2
2016-12-18T23:38:08.134Z,21.2
2016-12-18T23:40:07.351Z,21.2
2016-12-18T23:42:09.713Z,21.2
2016-12-18T23:44:05.364Z,21.2
2016-12-18T23:46:05.240Z,21.2
2016-12-18T23:48:05.001Z,21.2
2016-12-18T23:50:05.039Z,21.2
2016-12-18T23:52:04.732Z,21.2
2016-12-18T23:54:05.406Z,21.2
2016-12-18T23:56:07.993Z,21.2
2016-12-18T23:58:05.186Z,21.2
